sensor_id;sensor_type;location;lat;lon;timestamp;P1;durP1;ratioP1;P2;durP2;ratioP2
32146;SDS011;32190;49.112;8.598;2022-12-20T00:05:41;6.03;;;4.20;;
32146;SDS011;32190;49.112;8.598;2022-12-20T00:11:32;6.50;;;4.80;;
32146;SDS011;32190;49.112;8.598;2022-12-20T00:17:23;5.60;;;4.43;;
32146;SDS011;32190;49.112;8.598;2022-12-20T00:23:14;5.13;;;3.47;;
32146;SDS011;32190;49.112;8.598;2022-12-20T00:29:05;5.43;;;4.20;;
32146;SDS011;32190;49.112;8.598;2022-12-20T00:34:56;5.80;;;3.83;;
32146;SDS011;32190;49.112;8.598;2022-12-20T00:40:47;6.38;;;4.30;;
32146;SDS011;32190;49.112;8.598;2022-12-20T00:46:48;7.07;;;4.90;;
32146;SDS011;32190;49.112;8.598;2022-12-20T00:52:38;7.38;;;4.65;;
32146;SDS011;32190;49.112;8.598;2022-12-20T00:58:30;7.90;;;4.70;;
32146;SDS011;32190;49.112;8.598;2022-12-20T01:04:24;6.43;;;4.53;;
32146;SDS011;32190;49.112;8.598;2022-12-20T01:10:15;7.40;;;4.53;;
32146;SDS011;32190;49.112;8.598;2022-12-20T01:16:11;4.15;;;3.75;;
32146;SDS011;32190;49.112;8.598;2022-12-20T01:22:07;6.25;;;4.03;;
32146;SDS011;32190;49.112;8.598;2022-12-20T01:27:58;5.15;;;3.80;;
32146;SDS011;32190;49.112;8.598;2022-12-20T01:33:49;5.47;;;4.43;;
32146;SDS011;32190;49.112;8.598;2022-12-20T01:39:40;4.22;;;3.47;;
32146;SDS011;32190;49.112;8.598;2022-12-20T01:45:30;4.45;;;3.70;;
32146;SDS011;32190;49.112;8.598;2022-12-20T01:51:21;4.43;;;3.90;;
32146;SDS011;32190;49.112;8.598;2022-12-20T01:57:18;6.00;;;4.10;;
32146;SDS011;32190;49.112;8.598;2022-12-20T02:03:13;4.82;;;3.53;;
32146;SDS011;32190;49.112;8.598;2022-12-20T02:09:05;4.43;;;3.67;;
32146;SDS011;32190;49.112;8.598;2022-12-20T02:15:14;3.92;;;3.35;;
32146;SDS011;32190;49.112;8.598;2022-12-20T02:33:19;4.40;;;3.45;;
32146;SDS011;32190;49.112;8.598;2022-12-20T02:39:13;4.30;;;3.40;;
32146;SDS011;32190;49.112;8.598;2022-12-20T02:45:05;4.88;;;3.20;;
32146;SDS011;32190;49.112;8.598;2022-12-20T02:51:04;3.90;;;3.22;;
32146;SDS011;32190;49.112;8.598;2022-12-20T02:57:01;4.22;;;3.50;;
32146;SDS011;32190;49.112;8.598;2022-12-20T03:02:59;3.67;;;3.08;;
32146;SDS011;32190;49.112;8.598;2022-12-20T03:09:09;4.65;;;3.08;;
32146;SDS011;32190;49.112;8.598;2022-12-20T03:15:00;4.03;;;3.10;;
32146;SDS011;32190;49.112;8.598;2022-12-20T03:20:50;3.42;;;3.13;;
32146;SDS011;32190;49.112;8.598;2022-12-20T03:26:41;3.30;;;3.00;;
32146;SDS011;32190;49.112;8.598;2022-12-20T03:32:32;3.60;;;2.80;;
32146;SDS011;32190;49.112;8.598;2022-12-20T03:38:23;4.07;;;3.22;;
32146;SDS011;32190;49.112;8.598;2022-12-20T03:44:14;3.17;;;2.45;;
32146;SDS011;32190;49.112;8.598;2022-12-20T03:50:05;3.00;;;2.63;;
32146;SDS011;32190;49.112;8.598;2022-12-20T03:55:56;3.03;;;2.75;;
32146;SDS011;32190;49.112;8.598;2022-12-20T04:01:47;2.97;;;2.75;;
32146;SDS011;32190;49.112;8.598;2022-12-20T04:07:38;2.55;;;2.30;;
32146;SDS011;32190;49.112;8.598;2022-12-20T04:13:29;2.80;;;2.50;;
32146;SDS011;32190;49.112;8.598;2022-12-20T04:19:19;2.35;;;2.15;;
32146;SDS011;32190;49.112;8.598;2022-12-20T04:25:10;3.45;;;2.55;;
32146;SDS011;32190;49.112;8.598;2022-12-20T04:31:01;5.65;;;2.60;;
32146;SDS011;32190;49.112;8.598;2022-12-20T04:36:52;2.53;;;2.33;;
32146;SDS011;32190;49.112;8.598;2022-12-20T04:42:43;2.42;;;2.10;;
32146;SDS011;32190;49.112;8.598;2022-12-20T04:48:34;3.10;;;2.60;;
32146;SDS011;32190;49.112;8.598;2022-12-20T04:54:25;4.18;;;2.85;;
32146;SDS011;32190;49.112;8.598;2022-12-20T05:00:16;2.42;;;2.13;;
32146;SDS011;32190;49.112;8.598;2022-12-20T05:06:07;3.70;;;3.17;;
32146;SDS011;32190;49.112;8.598;2022-12-20T05:11:59;4.05;;;3.17;;
32146;SDS011;32190;49.112;8.598;2022-12-20T05:17:49;2.33;;;2.08;;
32146;SDS011;32190;49.112;8.598;2022-12-20T05:23:40;3.10;;;2.80;;
32146;SDS011;32190;49.112;8.598;2022-12-20T05:29:50;2.42;;;2.22;;
32146;SDS011;32190;49.112;8.598;2022-12-20T05:35:40;2.65;;;2.45;;
32146;SDS011;32190;49.112;8.598;2022-12-20T05:41:31;2.92;;;2.42;;
32146;SDS011;32190;49.112;8.598;2022-12-20T05:47:22;3.17;;;1.95;;
32146;SDS011;32190;49.112;8.598;2022-12-20T05:53:14;5.85;;;2.70;;
32146;SDS011;32190;49.112;8.598;2022-12-20T05:59:06;3.47;;;2.75;;
32146;SDS011;32190;49.112;8.598;2022-12-20T06:04:56;3.53;;;2.30;;
32146;SDS011;32190;49.112;8.598;2022-12-20T06:10:48;2.92;;;2.60;;
32146;SDS011;32190;49.112;8.598;2022-12-20T06:16:39;2.45;;;2.25;;
32146;SDS011;32190;49.112;8.598;2022-12-20T06:22:30;3.15;;;2.60;;
32146;SDS011;32190;49.112;8.598;2022-12-20T06:28:21;2.20;;;1.85;;
32146;SDS011;32190;49.112;8.598;2022-12-20T06:34:15;1.77;;;1.67;;
32146;SDS011;32190;49.112;8.598;2022-12-20T06:40:07;2.22;;;1.60;;
32146;SDS011;32190;49.112;8.598;2022-12-20T06:45:59;1.90;;;1.70;;
32146;SDS011;32190;49.112;8.598;2022-12-20T06:51:50;2.08;;;1.92;;
32146;SDS011;32190;49.112;8.598;2022-12-20T06:57:40;2.13;;;1.83;;
32146;SDS011;32190;49.112;8.598;2022-12-20T07:03:32;1.77;;;1.67;;
32146;SDS011;32190;49.112;8.598;2022-12-20T07:09:22;1.77;;;1.67;;
32146;SDS011;32190;49.112;8.598;2022-12-20T07:15:13;2.00;;;1.88;;
32146;SDS011;32190;49.112;8.598;2022-12-20T07:21:04;2.28;;;1.88;;
32146;SDS011;32190;49.112;8.598;2022-12-20T07:26:55;1.88;;;1.70;;
32146;SDS011;32190;49.112;8.598;2022-12-20T07:32:46;3.53;;;2.60;;
32146;SDS011;32190;49.112;8.598;2022-12-20T07:38:37;3.65;;;1.55;;
32146;SDS011;32190;49.112;8.598;2022-12-20T07:44:28;1.95;;;1.75;;
32146;SDS011;32190;49.112;8.598;2022-12-20T07:50:19;1.77;;;1.67;;
32146;SDS011;32190;49.112;8.598;2022-12-20T07:56:10;2.40;;;2.20;;
32146;SDS011;32190;49.112;8.598;2022-12-20T08:02:02;1.80;;;1.63;;
32146;SDS011;32190;49.112;8.598;2022-12-20T08:07:54;1.85;;;1.75;;
32146;SDS011;32190;49.112;8.598;2022-12-20T08:13:48;1.70;;;1.60;;
32146;SDS011;32190;49.112;8.598;2022-12-20T08:19:39;2.50;;;2.08;;
32146;SDS011;32190;49.112;8.598;2022-12-20T08:25:30;2.20;;;2.00;;
32146;SDS011;32190;49.112;8.598;2022-12-20T08:31:22;2.38;;;1.60;;
32146;SDS011;32190;49.112;8.598;2022-12-20T08:37:15;3.13;;;1.58;;
32146;SDS011;32190;49.112;8.598;2022-12-20T08:43:08;1.83;;;1.73;;
32146;SDS011;32190;49.112;8.598;2022-12-20T08:49:03;1.92;;;1.83;;
32146;SDS011;32190;49.112;8.598;2022-12-20T08:54:54;2.42;;;2.05;;
32146;SDS011;32190;49.112;8.598;2022-12-20T09:00:45;2.67;;;2.40;;
32146;SDS011;32190;49.112;8.598;2022-12-20T09:06:39;2.60;;;2.30;;
32146;SDS011;32190;49.112;8.598;2022-12-20T09:12:30;2.72;;;2.35;;
32146;SDS011;32190;49.112;8.598;2022-12-20T09:18:21;2.55;;;2.35;;
32146;SDS011;32190;49.112;8.598;2022-12-20T09:24:11;3.75;;;3.20;;
32146;SDS011;32190;49.112;8.598;2022-12-20T09:30:02;5.65;;;3.97;;
32146;SDS011;32190;49.112;8.598;2022-12-20T09:35:53;5.63;;;3.75;;
32146;SDS011;32190;49.112;8.598;2022-12-20T09:41:44;3.70;;;2.65;;
32146;SDS011;32190;49.112;8.598;2022-12-20T09:47:34;4.55;;;3.20;;
32146;SDS011;32190;49.112;8.598;2022-12-20T09:53:29;2.65;;;2.38;;
32146;SDS011;32190;49.112;8.598;2022-12-20T09:59:36;2.78;;;2.58;;
32146;SDS011;32190;49.112;8.598;2022-12-20T10:12:12;2.60;;;2.40;;
32146;SDS011;32190;49.112;8.598;2022-12-20T10:18:33;3.58;;;3.20;;
32146;SDS011;32190;49.112;8.598;2022-12-20T10:24:29;2.58;;;2.35;;
32146;SDS011;32190;49.112;8.598;2022-12-20T10:30:24;2.75;;;2.42;;
32146;SDS011;32190;49.112;8.598;2022-12-20T10:36:16;3.28;;;2.90;;
32146;SDS011;32190;49.112;8.598;2022-12-20T10:42:25;5.72;;;3.63;;
32146;SDS011;32190;49.112;8.598;2022-12-20T10:48:29;3.55;;;2.88;;
32146;SDS011;32190;49.112;8.598;2022-12-20T10:54:24;5.43;;;3.90;;
32146;SDS011;32190;49.112;8.598;2022-12-20T11:00:28;4.85;;;3.55;;
32146;SDS011;32190;49.112;8.598;2022-12-20T11:06:21;2.40;;;2.17;;
32146;SDS011;32190;49.112;8.598;2022-12-20T11:12:28;3.25;;;2.65;;
32146;SDS011;32190;49.112;8.598;2022-12-20T11:18:28;3.65;;;3.22;;
32146;SDS011;32190;49.112;8.598;2022-12-20T11:24:44;3.38;;;2.80;;
32146;SDS011;32190;49.112;8.598;2022-12-20T11:30:50;3.60;;;2.95;;
32146;SDS011;32190;49.112;8.598;2022-12-20T11:37:03;3.67;;;3.08;;
32146;SDS011;32190;49.112;8.598;2022-12-20T11:55:35;4.25;;;3.45;;
32146;SDS011;32190;49.112;8.598;2022-12-20T12:01:30;5.30;;;4.18;;
32146;SDS011;32190;49.112;8.598;2022-12-20T12:07:28;6.32;;;4.10;;
32146;SDS011;32190;49.112;8.598;2022-12-20T12:13:25;3.22;;;2.85;;
32146;SDS011;32190;49.112;8.598;2022-12-20T12:19:18;4.38;;;3.83;;
32146;SDS011;32190;49.112;8.598;2022-12-20T12:25:10;3.75;;;3.42;;
32146;SDS011;32190;49.112;8.598;2022-12-20T12:31:06;4.93;;;3.92;;
32146;SDS011;32190;49.112;8.598;2022-12-20T12:55:29;4.10;;;2.85;;
32146;SDS011;32190;49.112;8.598;2022-12-20T13:25:36;5.95;;;3.95;;
32146;SDS011;32190;49.112;8.598;2022-12-20T13:31:29;4.97;;;4.07;;
32146;SDS011;32190;49.112;8.598;2022-12-20T13:37:28;3.65;;;2.85;;
32146;SDS011;32190;49.112;8.598;2022-12-20T13:43:43;3.35;;;2.67;;
32146;SDS011;32190;49.112;8.598;2022-12-20T13:49:36;3.20;;;2.72;;
32146;SDS011;32190;49.112;8.598;2022-12-20T13:55:31;3.65;;;3.35;;
32146;SDS011;32190;49.112;8.598;2022-12-20T14:01:33;3.53;;;2.83;;
32146;SDS011;32190;49.112;8.598;2022-12-20T14:07:25;2.75;;;2.55;;
32146;SDS011;32190;49.112;8.598;2022-12-20T14:13:20;3.20;;;2.45;;
32146;SDS011;32190;49.112;8.598;2022-12-20T14:19:13;3.13;;;2.63;;
32146;SDS011;32190;49.112;8.598;2022-12-20T14:25:04;2.70;;;2.50;;
32146;SDS011;32190;49.112;8.598;2022-12-20T14:30:57;2.70;;;2.45;;
32146;SDS011;32190;49.112;8.598;2022-12-20T14:36:50;3.60;;;2.95;;
32146;SDS011;32190;49.112;8.598;2022-12-20T14:42:41;3.42;;;2.63;;
32146;SDS011;32190;49.112;8.598;2022-12-20T14:48:32;3.45;;;2.65;;
32146;SDS011;32190;49.112;8.598;2022-12-20T14:54:26;5.05;;;2.72;;
32146;SDS011;32190;49.112;8.598;2022-12-20T15:06:08;2.33;;;2.13;;
32146;SDS011;32190;49.112;8.598;2022-12-20T15:12:22;2.08;;;1.90;;
32146;SDS011;32190;49.112;8.598;2022-12-20T15:18:14;2.10;;;1.90;;
32146;SDS011;32190;49.112;8.598;2022-12-20T15:24:11;1.80;;;1.70;;
32146;SDS011;32190;49.112;8.598;2022-12-20T15:30:05;6.47;;;4.90;;
32146;SDS011;32190;49.112;8.598;2022-12-20T15:36:01;3.05;;;2.75;;
32146;SDS011;32190;49.112;8.598;2022-12-20T15:41:55;7.63;;;5.78;;
32146;SDS011;32190;49.112;8.598;2022-12-20T15:48:16;5.15;;;3.30;;
32146;SDS011;32190;49.112;8.598;2022-12-20T15:54:47;4.45;;;3.08;;
32146;SDS011;32190;49.112;8.598;2022-12-20T16:01:11;2.47;;;2.22;;
32146;SDS011;32190;49.112;8.598;2022-12-20T16:15:00;2.75;;;2.13;;
32146;SDS011;32190;49.112;8.598;2022-12-20T16:21:26;2.50;;;2.13;;
32146;SDS011;32190;49.112;8.598;2022-12-20T16:28:18;1.98;;;1.75;;
32146;SDS011;32190;49.112;8.598;2022-12-20T17:08:04;1.30;;;1.20;;
32146;SDS011;32190;49.112;8.598;2022-12-20T17:14:12;1.90;;;1.80;;
32146;SDS011;32190;49.112;8.598;2022-12-20T17:20:09;2.88;;;2.53;;
32146;SDS011;32190;49.112;8.598;2022-12-20T17:26:03;1.70;;;1.60;;
32146;SDS011;32190;49.112;8.598;2022-12-20T17:31:54;1.48;;;1.35;;
32146;SDS011;32190;49.112;8.598;2022-12-20T17:38:01;1.92;;;1.50;;
32146;SDS011;32190;49.112;8.598;2022-12-20T17:43:59;2.67;;;1.73;;
32146;SDS011;32190;49.112;8.598;2022-12-20T17:49:55;1.52;;;1.42;;
32146;SDS011;32190;49.112;8.598;2022-12-20T17:55:49;1.85;;;1.67;;
32146;SDS011;32190;49.112;8.598;2022-12-20T18:01:42;1.88;;;1.60;;
32146;SDS011;32190;49.112;8.598;2022-12-20T18:07:34;2.10;;;1.60;;
32146;SDS011;32190;49.112;8.598;2022-12-20T18:13:32;2.22;;;1.55;;
32146;SDS011;32190;49.112;8.598;2022-12-20T18:19:23;2.13;;;1.95;;
32146;SDS011;32190;49.112;8.598;2022-12-20T18:25:14;1.92;;;1.75;;
32146;SDS011;32190;49.112;8.598;2022-12-20T18:31:07;1.65;;;1.55;;
32146;SDS011;32190;49.112;8.598;2022-12-20T18:37:00;1.67;;;1.58;;
32146;SDS011;32190;49.112;8.598;2022-12-20T18:42:50;1.65;;;1.50;;
32146;SDS011;32190;49.112;8.598;2022-12-20T18:48:42;2.50;;;1.95;;
32146;SDS011;32190;49.112;8.598;2022-12-20T18:54:34;1.90;;;1.70;;
32146;SDS011;32190;49.112;8.598;2022-12-20T19:00:25;2.17;;;1.70;;
32146;SDS011;32190;49.112;8.598;2022-12-20T19:06:16;2.03;;;1.83;;
32146;SDS011;32190;49.112;8.598;2022-12-20T19:12:07;1.80;;;1.70;;
32146;SDS011;32190;49.112;8.598;2022-12-20T19:18:00;2.05;;;1.90;;
32146;SDS011;32190;49.112;8.598;2022-12-20T19:23:55;1.75;;;1.65;;
32146;SDS011;32190;49.112;8.598;2022-12-20T19:29:47;2.20;;;1.95;;
32146;SDS011;32190;49.112;8.598;2022-12-20T19:35:38;2.50;;;2.30;;
32146;SDS011;32190;49.112;8.598;2022-12-20T19:41:29;2.15;;;1.60;;
32146;SDS011;32190;49.112;8.598;2022-12-20T19:47:24;1.90;;;1.75;;
32146;SDS011;32190;49.112;8.598;2022-12-20T19:53:18;2.63;;;1.92;;
32146;SDS011;32190;49.112;8.598;2022-12-20T19:59:09;1.70;;;1.50;;
32146;SDS011;32190;49.112;8.598;2022-12-20T20:05:02;2.20;;;1.85;;
32146;SDS011;32190;49.112;8.598;2022-12-20T20:10:53;2.85;;;1.48;;
32146;SDS011;32190;49.112;8.598;2022-12-20T20:16:48;4.10;;;2.83;;
32146;SDS011;32190;49.112;8.598;2022-12-20T20:22:38;2.20;;;2.00;;
32146;SDS011;32190;49.112;8.598;2022-12-20T20:28:32;4.50;;;2.85;;
32146;SDS011;32190;49.112;8.598;2022-12-20T20:34:26;2.13;;;1.98;;
32146;SDS011;32190;49.112;8.598;2022-12-20T20:40:19;1.70;;;1.60;;
32146;SDS011;32190;49.112;8.598;2022-12-20T20:46:13;1.65;;;1.50;;
32146;SDS011;32190;49.112;8.598;2022-12-20T20:52:05;2.03;;;1.73;;
32146;SDS011;32190;49.112;8.598;2022-12-20T20:57:55;2.03;;;1.75;;
32146;SDS011;32190;49.112;8.598;2022-12-20T21:03:54;1.88;;;1.70;;
32146;SDS011;32190;49.112;8.598;2022-12-20T21:09:46;1.55;;;1.45;;
32146;SDS011;32190;49.112;8.598;2022-12-20T21:15:44;1.67;;;1.58;;
32146;SDS011;32190;49.112;8.598;2022-12-20T21:21:56;1.52;;;1.42;;
32146;SDS011;32190;49.112;8.598;2022-12-20T21:28:15;1.98;;;1.80;;
32146;SDS011;32190;49.112;8.598;2022-12-20T21:34:09;1.80;;;1.70;;
32146;SDS011;32190;49.112;8.598;2022-12-20T21:46:39;1.42;;;1.33;;
32146;SDS011;32190;49.112;8.598;2022-12-20T21:52:33;1.60;;;1.48;;
32146;SDS011;32190;49.112;8.598;2022-12-20T21:58:27;1.70;;;1.60;;
32146;SDS011;32190;49.112;8.598;2022-12-20T22:04:26;1.88;;;1.60;;
32146;SDS011;32190;49.112;8.598;2022-12-20T22:10:25;2.22;;;1.52;;
32146;SDS011;32190;49.112;8.598;2022-12-20T22:16:22;2.15;;;1.33;;
32146;SDS011;32190;49.112;8.598;2022-12-20T22:22:14;2.30;;;1.40;;
32146;SDS011;32190;49.112;8.598;2022-12-20T22:28:07;2.17;;;1.85;;
32146;SDS011;32190;49.112;8.598;2022-12-20T22:33:58;1.30;;;1.20;;
32146;SDS011;32190;49.112;8.598;2022-12-20T22:39:49;1.60;;;1.50;;
32146;SDS011;32190;49.112;8.598;2022-12-20T22:45:40;1.58;;;1.48;;
32146;SDS011;32190;49.112;8.598;2022-12-20T22:51:30;1.70;;;1.60;;
32146;SDS011;32190;49.112;8.598;2022-12-20T22:57:22;1.60;;;1.45;;
32146;SDS011;32190;49.112;8.598;2022-12-20T23:03:13;1.83;;;1.73;;
32146;SDS011;32190;49.112;8.598;2022-12-20T23:09:03;2.40;;;1.95;;
32146;SDS011;32190;49.112;8.598;2022-12-20T23:14:54;1.80;;;1.70;;
32146;SDS011;32190;49.112;8.598;2022-12-20T23:20:56;2.13;;;1.98;;
32146;SDS011;32190;49.112;8.598;2022-12-20T23:27:06;2.15;;;1.95;;
32146;SDS011;32190;49.112;8.598;2022-12-20T23:32:56;2.72;;;2.30;;
32146;SDS011;32190;49.112;8.598;2022-12-20T23:38:47;2.80;;;1.80;;
32146;SDS011;32190;49.112;8.598;2022-12-20T23:44:37;2.50;;;2.30;;
32146;SDS011;32190;49.112;8.598;2022-12-20T23:50:28;1.98;;;1.83;;
32146;SDS011;32190;49.112;8.598;2022-12-20T23:56:19;2.08;;;1.98;;
